Flight Track Log - Related Links

Times and Time Zones

All times are in EDT time to prevent confusion due to time zone crossing. See the AWQ8122 flight status page for this flight to view local times or setup timezone preferences in your user account.

Time Position Orientation Groundspeed Altitude Reporting Facility
EDT Latitude Longitude Course Direction KTS MPH feet Rate Location/Type
Sun 05:52:02 AM -7.3830 112.8070 99° East 148 170 1,200  Level FlightAware ADS-B
Sun 05:52:27 AM -7.3780 112.8250 74° East 176 203 1,800 1,024 Climbing FlightAware ADS-B
Sun 05:52:43 AM -7.3750 112.8270 33° Northeast 184 212 1,900 136 Climbing FlightAware ADS-B
Sun 05:53:11 AM -7.3590 112.8400 39° Northeast 184 212 1,900 2,557 Level FlightAware ADS-B
Sun 05:53:44 AM -7.3080 112.8570 18° North 234 269 4,500 3,962 Climbing FlightAware ADS-B
Sun 05:54:04 AM -7.2870 112.8630 16° North 244 281 5,400 2,550 Climbing FlightAware ADS-B
Sun 05:54:24 AM -7.2670 112.8640 North 245 282 6,200 2,933 Climbing FlightAware ADS-B
Sun 05:54:49 AM -7.2350 112.8630 358° North 245 282 7,600 3,067 Climbing FlightAware ADS-B
Sun 05:55:09 AM -7.2120 112.8630 360° North 248 285 8,500 2,700 Climbing FlightAware ADS-B
Sun 05:55:29 AM -7.1890 112.8590 350° North 248 285 9,400 2,727 Climbing FlightAware ADS-B
Sun 05:56:04 AM -7.1520 112.8460 341° North 247 284 11,000 2,314 Climbing FlightAware ADS-B
Sun 05:56:39 AM -7.1130 112.8320 340° North 260 299 12,100 2,143 Climbing FlightAware ADS-B
Sun 05:57:14 AM -7.0720 112.8180 341° North 263 303 13,500 2,308 Climbing FlightAware ADS-B
Sun 05:57:44 AM -7.0370 112.8060 341° North 266 306 14,600 1,971 Climbing FlightAware ADS-B
Sun 05:58:24 AM -6.9930 112.7860 336° Northwest 277 319 15,800 1,350 Climbing FlightAware ADS-B
Sun 05:59:04 AM -6.9460 112.7550 327° Northwest 312 359 16,400 800 Climbing FlightAware ADS-B
Sun 05:59:39 AM -6.9010 112.7250 327° Northwest 345 397 16,800 686 Climbing FlightAware ADS-B
Sun 06:00:14 AM -6.8530 112.6940 327° Northwest 374 430 17,200 1,120 Climbing FlightAware ADS-B
Sun 06:00:54 AM -6.7920 112.6540 327° Northwest 387 445 18,200 1,457 Climbing FlightAware ADS-B
Sun 06:01:24 AM -6.7490 112.6260 327° Northwest 393 452 18,900 1,569 Climbing FlightAware ADS-B
Sun 06:01:59 AM -6.6920 112.5880 326° Northwest 399 459 19,900 1,800 Climbing FlightAware ADS-B
Sun 06:02:34 AM -6.6380 112.5530 327° Northwest 400 460 21,000 1,091 Climbing FlightAware ADS-B
Sun 06:03:27 AM -6.5610 112.5030 327° Northwest 407 468 21,500 337 Climbing FlightAware ADS-B
Sun 06:04:03 AM -6.5130 112.4710 326° Northwest 407 468 21,500  Level FlightAware ADS-B
Sun 06:04:39 AM -6.4650 112.4400 327° Northwest 407 468 21,500  Level FlightAware ADS-B
Sun 06:05:15 AM -6.4160 112.4080 327° Northwest 407 468 21,500  Level FlightAware ADS-B
Sun 06:05:51 AM -6.3680 112.3760 326° Northwest 407 468 21,500  Level FlightAware ADS-B
Sun 06:06:27 AM -6.3200 112.3450 327° Northwest 407 468 21,500 132 Level FlightAware ADS-B
Sun 06:09:00 AM -6.0621 112.1960 330° Northwest  Level Estimated
Sun 06:10:00 AM -5.9610 112.1376 330° Northwest  Level Estimated
Sun 06:11:00 AM -5.8599 112.0792 330° Northwest  Level Estimated
Sun 06:12:00 AM -5.7587 112.0208 330° Northwest  Level Estimated
Sun 06:13:00 AM -5.6576 111.9625 330° Northwest  Level Estimated
Sun 06:14:00 AM -5.5564 111.9042 330° Northwest  Level Estimated
Sun 06:15:00 AM -5.4552 111.8459 330° Northwest  Level Estimated
Sun 06:16:00 AM -5.3541 111.7876 330° Northwest  Level Estimated
Sun 06:17:00 AM -5.2529 111.7293 330° Northwest  Level Estimated
Sun 06:18:00 AM -5.1517 111.6711 330° Northwest  Level Estimated
Sun 06:19:00 AM -5.0505 111.6129 330° Northwest  Level Estimated
Sun 06:20:00 AM -4.9493 111.5547 330° Northwest  Level Estimated
Sun 06:21:00 AM -4.8481 111.4965 330° Northwest  Level Estimated
Sun 06:22:00 AM -4.7469 111.4383 330° Northwest  Level Estimated
Sun 06:23:00 AM -4.6457 111.3802 330° Northwest  Level Estimated
Sun 06:24:00 AM -4.5445 111.3221 330° Northwest  Level Estimated
Sun 06:25:00 AM -4.4433 111.2639 330° Northwest  Level Estimated
Sun 06:26:00 AM -4.3421 111.2058 330° Northwest  Level Estimated
Sun 06:27:00 AM -4.2408 111.1477 330° Northwest  Level Estimated
Sun 06:28:00 AM -4.1396 111.0897 330° Northwest  Level Estimated
Sun 06:29:00 AM -4.0384 111.0316 330° Northwest  Level Estimated
Sun 06:30:00 AM -3.9372 110.9736 330° Northwest  Level Estimated
Sun 06:31:00 AM -3.8359 110.9155 330° Northwest  Level Estimated
Sun 06:32:00 AM -3.7347 110.8575 330° Northwest  Level Estimated
Sun 06:33:00 AM -3.6334 110.7995 330° Northwest  Level Estimated
Sun 06:34:00 AM -3.5322 110.7415 330° Northwest  Level Estimated
Sun 06:35:00 AM -3.4309 110.6836 330° Northwest  Level Estimated
Sun 06:36:00 AM -3.3296 110.6256 330° Northwest  Level Estimated
Sun 06:37:00 AM -3.2284 110.5677 330° Northwest  Level Estimated
Sun 06:38:00 AM -3.1271 110.5097 330° Northwest  Level Estimated
Sun 06:39:00 AM -3.0258 110.4518 330° Northwest  Level Estimated
Sun 06:40:00 AM -2.9246 110.3939 330° Northwest  Level Estimated
Sun 06:41:00 AM -2.8233 110.3360 330° Northwest  Level Estimated
Sun 06:42:00 AM -2.7220 110.2781 330° Northwest  Level Estimated
Sun 06:43:00 AM -2.6207 110.2202 330° Northwest  Level Estimated
Sun 06:44:00 AM -2.5194 110.1623 330° Northwest  Level Estimated
Sun 06:45:00 AM -2.4182 110.1044 330° Northwest  Level Estimated
Sun 06:46:00 AM -2.3169 110.0466 330° Northwest  Level Estimated
Sun 06:47:00 AM -2.2156 109.9887 330° Northwest  Level Estimated
Sun 06:48:00 AM -2.1143 109.9309 330° Northwest  Level Estimated
Sun 06:49:00 AM -2.0130 109.8730 330° Northwest  Level Estimated
Sun 06:50:00 AM -1.9117 109.8152 330° Northwest  Level Estimated
Sun 06:51:00 AM -1.8104 109.7574 330° Northwest  Level Estimated
Sun 06:52:00 AM -1.7091 109.6996 330° Northwest  Level Estimated
Sun 06:53:00 AM -1.6078 109.6418 330° Northwest  Level Estimated
Sun 06:54:00 AM -1.5065 109.5840 330° Northwest  Level Estimated
Sun 06:55:00 AM -1.4052 109.5262 330° Northwest  Level Estimated
Sun 06:56:00 AM -1.3039 109.4684 330° Northwest  Level Estimated
Sun 06:57:00 AM -1.2026 109.4106 330° Northwest  Level Estimated
Sun 06:58:00 AM -1.1012 109.3528 330° Northwest  Level Estimated
Sun 06:59:00 AM -0.9999 109.2950 330° Northwest  Level Estimated
Sun 07:00:00 AM -0.8986 109.2373 330° Northwest  Level Estimated
Sun 07:01:00 AM -0.7973 109.1795 330° Northwest  Level Estimated
Sun 07:02:00 AM -0.6960 109.1217 330° Northwest  Level Estimated
Sun 07:03:00 AM -0.5947 109.0639 330° Northwest  Level Estimated
Sun 07:04:00 AM -0.4934 109.0062 330° Northwest  Level Estimated
Sun 07:05:00 AM -0.3920 108.9484 330° Northwest  Level Estimated
Sun 07:06:00 AM -0.2907 108.8906 330° Northwest  Level Estimated
Sun 07:07:00 AM -0.1894 108.8329 330° Northwest  Level Estimated
Sun 07:08:00 AM -0.0881 108.7751 330° Northwest  Level Estimated
Sun 07:09:00 AM 0.0132 108.7174 330° Northwest  Level Estimated
Sun 07:10:00 AM 0.1146 108.6596 330° Northwest  Level Estimated
Sun 07:11:00 AM 0.2159 108.6019 330° Northwest  Level Estimated
Sun 07:12:00 AM 0.3172 108.5441 330° Northwest  Level Estimated
Sun 07:13:00 AM 0.4185 108.4863 330° Northwest  Level Estimated
Sun 07:14:00 AM 0.5198 108.4286 330° Northwest  Level Estimated
Sun 07:15:00 AM 0.6212 108.3708 330° Northwest  Level Estimated
Sun 07:16:00 AM 0.7225 108.3130 330° Northwest  Level Estimated
Sun 07:17:00 AM 0.8238 108.2553 330° Northwest  Level Estimated
Sun 07:18:00 AM 0.9251 108.1975 330° Northwest  Level Estimated
Sun 07:19:00 AM 1.0264 108.1397 330° Northwest  Level Estimated
Sun 07:20:00 AM 1.1277 108.0819 330° Northwest  Level Estimated
Sun 07:21:00 AM 1.2290 108.0241 330° Northwest  Level Estimated
Sun 07:22:00 AM 1.3303 107.9664 330° Northwest  Level Estimated
Sun 07:23:00 AM 1.4317 107.9086 330° Northwest  Level Estimated
Sun 07:24:00 AM 1.5330 107.8508 330° Northwest  Level Estimated
Sun 07:25:00 AM 1.6343 107.7930 330° Northwest  Level Estimated
Sun 07:26:00 AM 1.7356 107.7352 330° Northwest  Level Estimated
Sun 07:27:00 AM 1.8369 107.6773 330° Northwest  Level Estimated
Sun 07:28:00 AM 1.9382 107.6195 330° Northwest  Level Estimated
Sun 07:29:00 AM 2.0395 107.5617 330° Northwest  Level Estimated
Sun 07:30:00 AM 2.1408 107.5039 330° Northwest  Level Estimated
Sun 07:31:00 AM 2.2420 107.4460 330° Northwest  Level Estimated
Sun 07:32:00 AM 2.3433 107.3882 330° Northwest  Level Estimated
Sun 07:33:00 AM 2.4446 107.3303 330° Northwest  Level Estimated
Sun 07:34:00 AM 2.5459 107.2724 330° Northwest  Level Estimated
Sun 07:35:00 AM 2.6472 107.2145 330° Northwest  Level Estimated
Sun 07:36:00 AM 2.7485 107.1567 330° Northwest  Level Estimated
Sun 07:37:00 AM 2.8498 107.0988 330° Northwest  Level Estimated
Sun 07:38:00 AM 2.9510 107.0408 330° Northwest  Level Estimated
Sun 07:39:00 AM 3.0523 106.9829 330° Northwest  Level Estimated
Sun 07:40:00 AM 3.1536 106.9250 330° Northwest  Level Estimated
Sun 07:40:16 AM 1.9710 104.1670 330° Northwest 439 505 34,000  Level FlightAware ADS-B
Sun 07:40:47 AM 2.0230 104.1430 335° Northwest 438 504 34,000  Level FlightAware ADS-B
Sun 07:41:23 AM 2.1000 104.1070 335° Northwest 438 504 34,000  Level FlightAware ADS-B
Sun 07:42:11 AM 2.1770 104.0700 334° Northwest 437 503 34,000  Level FlightAware ADS-B
Sun 07:42:47 AM 2.2330 104.0420 333° Northwest 437 503 34,000  Level FlightAware ADS-B
Sun 07:43:39 AM 2.3320 103.9960 335° Northwest 437 503 34,000  Level FlightAware ADS-B
Sun 07:44:16 AM 2.4070 103.9600 334° Northwest 437 503 34,000  Level FlightAware ADS-B
Sun 07:44:52 AM 2.4620 103.9330 334° Northwest 437 503 34,000  Level FlightAware ADS-B
Sun 07:45:31 AM 2.5550 103.8910 336° Northwest 436 502 34,000  Level FlightAware ADS-B
Sun 07:46:08 AM 2.6210 103.8610 336° Northwest 434 499 34,000  Level FlightAware ADS-B
Sun 07:47:04 AM 2.7080 103.8210 335° Northwest 434 499 34,000  Level FlightAware ADS-B
Sun 07:47:35 AM 2.7730 103.7920 336° Northwest 434 499 34,000  Level FlightAware ADS-B
Sun 07:48:13 AM 2.8320 103.7650 335° Northwest 434 499 34,000  Level FlightAware ADS-B
Sun 07:48:53 AM 2.9210 103.7250 336° Northwest 436 502 34,000  Level FlightAware ADS-B
Sun 07:49:34 AM 3.0030 103.6870 335° Northwest 438 504 34,000  Level FlightAware ADS-B
Sun 07:50:05 AM 3.0480 103.6610 330° Northwest 441 507 34,000  Level FlightAware ADS-B
Sun 07:50:44 AM 3.1210 103.6200 331° Northwest 441 507 34,000  Level FlightAware ADS-B
Sun 07:51:23 AM 3.1940 103.5790 331° Northwest 441 507 34,000  Level FlightAware ADS-B
Sun 07:52:08 AM 3.2940 103.5240 331° Northwest 441 507 34,000  Level FlightAware ADS-B
Sun 07:52:51 AM 3.3520 103.4910 330° Northwest 441 507 34,000  Level FlightAware ADS-B
Sun 07:53:30 AM 3.4110 103.4570 330° Northwest 441 507 34,000  Level FlightAware ADS-B
Sun 07:54:14 AM 3.4800 103.4190 331° Northwest 443 510 34,000  Level FlightAware ADS-B
Sun 07:55:06 AM 3.5800 103.3620 330° Northwest 444 511 34,000  Level FlightAware ADS-B
Sun 07:55:58 AM 3.6740 103.3100 331° Northwest 448 516 34,000  Level FlightAware ADS-B
Sun 07:56:39 AM 3.7410 103.2770 334° Northwest 447 514 34,000  Level FlightAware ADS-B
Sun 07:57:23 AM 3.8230 103.2460 339° North 447 514 34,000  Level FlightAware ADS-B
Sun 07:58:00 AM 3.9240 103.2180 345° North 433 498 34,000  Level FlightAware ADS-B
Sun 07:58:51 AM 4.0240 103.1820 340° North 430 495 34,000  Level FlightAware ADS-B
Sun 07:59:27 AM 4.0900 103.1580 340° North 429 494 34,000  Level FlightAware ADS-B
Sun 08:00:04 AM 4.1490 103.1360 340° North 428 493 34,000  Level FlightAware ADS-B
Sun 08:01:00 AM 4.2430 103.1000 339° North 429 494 34,000  Level FlightAware ADS-B
Sun 08:01:34 AM 4.3450 103.0620 340° North 434 499 34,000  Level FlightAware ADS-B
Sun 08:02:16 AM 4.4190 103.0310 337° Northwest 434 499 34,000  Level FlightAware ADS-B
Sun 08:02:54 AM 4.4760 103.0080 338° Northwest 434 499 34,000 76 Level FlightAware ADS-B
Sun 08:03:35 AM 4.5520 102.9770 338° Northwest 433 498 34,100  Climbing FlightAware ADS-B
Sun 08:04:17 AM 4.6170 102.9500 338° Northwest 431 496 34,000 -78 Descending FlightAware ADS-B
Sun 08:04:52 AM 4.6960 102.9180 338° Northwest 430 495 34,000  Level FlightAware ADS-B
Sun 08:05:33 AM 4.7710 102.8870 338° Northwest 430 495 34,000  Level FlightAware ADS-B
Sun 08:06:18 AM 4.8740 102.8450 338° Northwest 431 496 34,000  Level FlightAware ADS-B
Sun 08:06:58 AM 4.9420 102.8170 338° Northwest 434 499 34,000  Level FlightAware ADS-B
Sun 08:07:33 AM 5.0130 102.7880 338° Northwest 435 501 34,000  Level FlightAware ADS-B
Sun 08:08:08 AM 5.0770 102.7610 337° Northwest 438 504 34,000  Level FlightAware ADS-B
Sun 08:08:49 AM 5.1550 102.7290 338° Northwest 439 505 34,000  Level FlightAware ADS-B
Sun 08:09:24 AM 5.2220 102.7020 338° Northwest 440 506 34,000  Level FlightAware ADS-B
Sun 08:09:59 AM 5.2800 102.6780 338° Northwest 442 509 34,000  Level FlightAware ADS-B
Sun 08:10:34 AM 5.3540 102.6480 338° Northwest 442 509 34,000  Level FlightAware ADS-B
Sun 08:11:11 AM 5.4230 102.6190 337° Northwest 442 509 34,000  Level FlightAware ADS-B
Sun 08:11:47 AM 5.4940 102.5980 344° North 435 501 34,000  Level FlightAware ADS-B
Sun 08:12:21 AM 5.5620 102.5850 349° North 434 499 34,000  Level FlightAware ADS-B
Sun 08:12:56 AM 5.6330 102.5710 349° North 434 499 34,000  Level FlightAware ADS-B
Sun 08:13:29 AM 5.6950 102.5580 348° North 433 498 34,000  Level FlightAware ADS-B
Sun 08:14:04 AM 5.7600 102.5450 349° North 433 498 34,000  Level FlightAware ADS-B
Sun 08:14:49 AM 5.8560 102.5260 349° North 434 499 34,000  Level FlightAware ADS-B
Sun 08:15:19 AM 5.9110 102.5150 349° North 434 499 34,000  Level FlightAware ADS-B
Sun 08:15:54 AM 5.9830 102.5010 349° North 433 498 34,000  Level FlightAware ADS-B
Sun 08:16:29 AM 6.0420 102.4890 349° North 431 496 34,000  Level FlightAware ADS-B
Sun 08:17:09 AM 6.1310 102.4710 349° North 429 494 34,000  Level FlightAware ADS-B
Sun 08:17:39 AM 6.1910 102.4590 349° North 428 493 34,000  Level FlightAware ADS-B
Sun 08:18:24 AM 6.2790 102.4420 349° North 427 491 34,000  Level FlightAware ADS-B
Sun 08:18:59 AM 6.3420 102.4290 348° North 427 491 34,000  Level FlightAware ADS-B
Sun 08:19:36 AM 6.4190 102.4140 349° North 426 490 34,000  Level FlightAware ADS-B
Sun 08:20:11 AM 6.4870 102.4010 349° North 427 491 34,000  Level FlightAware ADS-B
Sun 08:20:51 AM 6.5610 102.3860 349° North 430 495 34,000  Level FlightAware ADS-B
Sun 08:21:37 AM 6.6430 102.3690 348° North 431 496 34,000  Level FlightAware ADS-B
Sun 08:22:13 AM 6.7020 102.3560 348° North 431 496 34,000  Level FlightAware ADS-B
Sun 08:22:49 AM 6.7620 102.3440 349° North 431 496 34,000 77 Level FlightAware ADS-B
Sun 08:23:11 AM 6.5610 102.3860 168° South 34,100 143 Climbing FlightAware ADS-B
Sun 08:23:31 AM 6.8810 102.3230 349° North 426 490 34,100 -109 Level FlightAware ADS-B
Sun 08:24:06 AM 6.9450 102.3100 349° North 426 490 34,000 -86 Descending FlightAware ADS-B
Sun 08:24:41 AM 7.0160 102.2960 349° North 425 489 34,000  Level FlightAware ADS-B
Sun 08:25:16 AM 7.0840 102.2830 349° North 427 491 34,000  Level FlightAware ADS-B
Sun 08:25:51 AM 7.1540 102.2690 349° North 426 490 34,000  Level FlightAware ADS-B
Sun 08:26:36 AM 7.2200 102.2550 348° North 426 490 34,000  Level FlightAware ADS-B
Sun 08:27:12 AM 7.2790 102.2430 349° North 426 490 34,000  Level FlightAware ADS-B
Sun 08:27:48 AM 7.3380 102.2300 348° North 426 490 34,000  Level FlightAware ADS-B
Sun 08:28:24 AM 7.3970 102.2170 348° North 426 490 34,000  Level FlightAware ADS-B
Sun 08:29:00 AM 7.4560 102.2050 349° North 426 490 34,000  Level FlightAware ADS-B
Sun 08:29:37 AM 7.5160 102.1920 348° North 426 490 34,000  Level FlightAware ADS-B
Sun 08:30:13 AM 7.5750 102.1790 348° North 426 490 34,000  Level FlightAware ADS-B
Sun 08:30:50 AM 7.6360 102.1660 348° North 426 490 34,000  Level FlightAware ADS-B
Sun 08:31:26 AM 7.6950 102.1530 348° North 426 490 34,000  Level FlightAware ADS-B
Sun 08:32:02 AM 7.7540 102.1410 349° North 426 490 34,000  Level FlightAware ADS-B
Sun 08:32:38 AM 7.8130 102.1280 348° North 426 490 34,000  Level FlightAware ADS-B
Sun 08:33:14 AM 7.8720 102.1150 348° North 426 490 34,000  Level FlightAware ADS-B
Sun 08:33:50 AM 7.9310 102.1030 349° North 426 490 34,000  Level FlightAware ADS-B
Sun 08:34:26 AM 7.9900 102.0900 348° North 426 490 34,000  Level FlightAware ADS-B
Sun 08:35:02 AM 8.0490 102.0770 348° North 426 490 34,000  Level FlightAware ADS-B
Sun 08:35:38 AM 8.1080 102.0650 349° North 426 490 34,000  Level FlightAware ADS-B
Sun 08:38:00 AM 8.3639 102.0018 346° North  Level Estimated
Sun 08:39:00 AM 8.4721 101.9751 346° North  Level Estimated
Sun 08:40:00 AM 8.5802 101.9484 346° North  Level Estimated
Sun 08:41:00 AM 8.6884 101.9217 346° North  Level Estimated
Sun 08:42:00 AM 8.7965 101.8949 346° North  Level Estimated
Sun 08:43:00 AM 8.9046 101.8681 346° North  Level Estimated
Sun 08:44:00 AM 9.0128 101.8413 346° North  Level Estimated
Sun 08:45:00 AM 9.1209 101.8145 346° North  Level Estimated
Sun 08:46:00 AM 9.2290 101.7877 346° North  Level Estimated
Sun 08:47:00 AM 9.3372 101.7609 346° North  Level Estimated
Sun 08:48:00 AM 9.4453 101.7340 346° North  Level Estimated
Sun 08:49:00 AM 9.5534 101.7072 346° North  Level Estimated
Sun 08:50:00 AM 9.6615 101.6803 346° North  Level Estimated
Sun 08:51:00 AM 9.7697 101.6534 346° North  Level Estimated
Sun 08:52:00 AM 9.8778 101.6264 346° North  Level Estimated
Sun 08:53:00 AM 9.9859 101.5995 346° North  Level Estimated
Sun 08:54:00 AM 10.0940 101.5725 346° North  Level Estimated
Sun 08:55:00 AM 10.2021 101.5456 346° North  Level Estimated
Sun 08:56:00 AM 10.3102 101.5186 346° North  Level Estimated
Sun 08:57:00 AM 10.4183 101.4916 346° North  Level Estimated
Sun 08:58:00 AM 10.5264 101.4645 346° North  Level Estimated
Sun 08:59:00 AM 10.6345 101.4375 346° North  Level Estimated
Sun 09:00:00 AM 10.7426 101.4104 346° North  Level Estimated
Sun 09:01:00 AM 10.8507 101.3833 346° North  Level Estimated
Sun 09:01:28 AM 11.4300 101.7980 346° North 435 501 34,000  Level FlightAware ADS-B
Sun 09:02:02 AM 11.4970 101.7920 355° North 436 502 34,000  Level FlightAware ADS-B
Sun 09:02:38 AM 11.5680 101.7860 355° North 437 503 34,000  Level FlightAware ADS-B
Sun 09:03:14 AM 11.6420 101.7790 355° North 439 505 34,000  Level FlightAware ADS-B
Sun 09:03:48 AM 11.7110 101.7730 355° North 440 506 34,000  Level FlightAware ADS-B
Sun 09:04:26 AM 11.7900 101.7660 355° North 441 507 34,000  Level FlightAware ADS-B
Sun 09:05:18 AM 11.8940 101.7570 355° North 442 509 34,000  Level FlightAware ADS-B
Sun 09:05:54 AM 11.9690 101.7500 355° North 441 507 34,000  Level FlightAware ADS-B
Sun 09:06:27 AM 12.0360 101.7440 355° North 441 507 34,000  Level FlightAware ADS-B
Sun 09:07:02 AM 12.1100 101.7380 355° North 442 509 34,000  Level FlightAware ADS-B
Sun 09:07:40 AM 12.1870 101.7300 354° North 445 512 34,000  Level FlightAware ADS-B
Sun 09:08:06 AM 12.2380 101.7100 339° North 455 524 34,000 97 Level FlightAware ADS-B
Sun 09:08:42 AM 12.3030 101.6710 330° Northwest 452 520 34,100  Climbing FlightAware ADS-B
Sun 09:09:18 AM 12.3680 101.6320 330° Northwest 450 518 34,000 -71 Descending FlightAware ADS-B
Sun 09:10:06 AM 12.4540 101.5810 330° Northwest 449 517 34,000  Level FlightAware ADS-B
Sun 09:10:42 AM 12.5200 101.5410 329° Northwest 449 517 34,000  Level FlightAware ADS-B
Sun 09:11:14 AM 12.5780 101.5070 330° Northwest 448 516 34,000  Level FlightAware ADS-B
Sun 09:11:52 AM 12.6390 101.4700 329° Northwest 447 514 34,000  Level FlightAware ADS-B
Sun 09:12:29 AM 12.6940 101.4360 329° Northwest 447 514 34,000  Level FlightAware ADS-B
Sun 09:13:05 AM 12.7490 101.4020 329° Northwest 447 514 34,000  Level FlightAware ADS-B
Sun 09:13:42 AM 12.8040 101.3680 329° Northwest 447 514 34,000  Level FlightAware ADS-B
Sun 09:14:18 AM 12.8590 101.3340 329° Northwest 447 514 34,000  Level FlightAware ADS-B
Sun 09:14:54 AM 12.9130 101.3010 329° Northwest 447 514 34,000  Level FlightAware ADS-B
Sun 09:15:31 AM 12.9690 101.2670 329° Northwest 447 514 34,000  Level FlightAware ADS-B
Sun 09:16:08 AM 13.0240 101.2320 328° Northwest 447 514 34,000  Level FlightAware ADS-B
Sun 09:16:44 AM 13.0790 101.1990 330° Northwest 447 514 34,000 -9,296 Level FlightAware ADS-B
Sun 09:17:19 AM 13.2100 101.1210 330° Northwest 398 458 23,000 -10,310 Descending FlightAware ADS-B
Sun 09:17:55 AM 13.2670 101.0850 328° Northwest 386 444 21,800 -1,859 Descending FlightAware ADS-B
Sun 09:18:30 AM 13.3190 101.0540 330° Northwest 375 432 20,800 -1,917 Descending FlightAware ADS-B
Sun 09:19:07 AM 13.3750 101.0190 329° Northwest 364 419 19,500 -2,348 Descending FlightAware ADS-B
Sun 09:19:39 AM 13.4210 100.9910 329° Northwest 361 415 18,100 -2,294 Descending FlightAware ADS-B
Sun 09:20:15 AM 13.4720 100.9600 329° Northwest 344 396 16,900 -2,000 Descending FlightAware ADS-B
Sun 09:20:51 AM 13.5200 100.9300 329° Northwest 330 380 15,700 -2,167 Descending FlightAware ADS-B
Sun 09:21:27 AM 13.5670 100.9010 329° Northwest 330 380 14,300 -2,118 Descending FlightAware ADS-B
Sun 09:21:59 AM 13.6090 100.8750 329° Northwest 328 377 13,300 -1,412 Descending FlightAware ADS-B
Sun 09:22:35 AM 13.6530 100.8410 323° Northwest 324 373 12,700 -917 Descending FlightAware ADS-B
Sun 09:23:11 AM 13.6950 100.8070 322° Northwest 306 352 12,200 -794 Descending FlightAware ADS-B
Sun 09:23:43 AM 13.7290 100.7790 321° Northwest 298 343 11,800 -1,588 Descending FlightAware ADS-B
Sun 09:24:19 AM 13.7700 100.7460 322° Northwest 307 353 10,400 -1,662 Descending FlightAware ADS-B
Sun 09:24:48 AM 13.8010 100.7210 322° Northwest 290 334 10,000 -1,125 Descending FlightAware ADS-B
Sun 09:25:07 AM 13.8210 100.7040 320° Northwest 284 327 9,500 -1,500 Descending FlightAware ADS-B
Sun 09:25:28 AM 13.8430 100.6870 323° Northwest 279 321 9,000 -1,297 Descending FlightAware ADS-B
Sun 09:25:44 AM 13.8580 100.6750 322° Northwest 276 318 8,700 -1,500 Descending FlightAware ADS-B
Sun 09:26:04 AM 13.8790 100.6580 322° Northwest 273 314 8,100 -1,814 Descending FlightAware ADS-B
Sun 09:26:27 AM 13.9020 100.6390 321° Northwest 269 310 7,400 -1,909 Descending FlightAware ADS-B
Sun 09:26:48 AM 13.9220 100.6230 322° Northwest 269 310 6,700 -1,862 Descending FlightAware ADS-B
Sun 09:26:56 AM 13.9300 100.6170 324° Northwest 274 315 6,500 -1,895 Descending FlightAware ADS-B
Sun 09:27:07 AM 13.9440 100.6110 337° Northwest 278 320 6,100 -2,000 Descending FlightAware ADS-B
Sun 09:27:20 AM 13.9590 100.6070 345° North 277 319 5,700 -1,833 Descending FlightAware ADS-B
Sun 09:27:43 AM 13.9880 100.5980 343° North 274 315 5,000 -1,773 Descending FlightAware ADS-B
Sun 09:28:04 AM 14.0130 100.5910 345° North 274 315 4,400 -1,800 Descending FlightAware ADS-B
Sun 09:28:23 AM 14.0380 100.5840 345° North 269 310 3,800 -1,610 Descending FlightAware ADS-B
Sun 09:28:45 AM 14.0640 100.5760 343° North 262 302 3,300 -1,500 Descending FlightAware ADS-B
Sun 09:28:51 AM 14.0710 100.5760 360° North 265 305 3,100 -1,929 Descending FlightAware ADS-B
Sun 09:29:13 AM 14.0970 100.5850 19° North 277 319 2,400 -1,622 Descending FlightAware ADS-B
Sun 09:29:28 AM 14.1100 100.5990 46° Northeast 275 316 2,100 -1,043 Descending FlightAware ADS-B
Sun 09:29:36 AM 14.1150 100.6080 60° Northeast 269 310 2,000 -1,000 Descending FlightAware ADS-B
Sun 09:29:40 AM 14.1160 100.6130 78° East 267 307 1,900 -545 Descending FlightAware ADS-B
Sun 09:29:47 AM 14.1170 100.6220 83° East 260 299 1,900 -162 Level FlightAware ADS-B
Sun 09:30:17 AM 14.1060 100.6530 110° East 222 255 1,800 -107 Descending FlightAware ADS-B
Sun 09:30:43 AM 14.0960 100.6740 116° Southeast 222 255 1,800  Level FlightAware ADS-B
Sun 09:31:54 AM 14.0310 100.6710 183° South 174 200 1,800  Level FlightAware ADS-B
Sun 09:32:20 AM 14.0120 100.6600 209° Southwest 175 201 1,800 86 Level FlightAware ADS-B
Sun 09:33:04 AM 13.9870 100.6470 207° Southwest 170 196 1,900 136 Climbing FlightAware ADS-B
Sun 09:35:00 AM 13.9126 100.6068 208° Southwest  Level Estimated

Login

Don't have an account? Register now (free) for customized features, flight alerts, and more!